CheckWX is a tool to help pilots better visualize weather data.  It is not intended as a substitute for an official pre-flight weather briefing.

01:13:35 UTC

CYLA METAR
Aupaluk Airport
Aupaluk, Canada
Current

3 hours ago

CYLA 232200Z 25018KT 15SM DRSN FEW024 FEW047 BKN120 M23/M27 A3011 RMK SC1SC1AC5 SNW CVR/TRACE LOOSE LAST STFD OBS/NEXT 241300UTC SLP205
Observed
Feb-23 @ 22:00 UTC
Wind
  • 250° at 18 KTS
Visibility
15 SM
Flight Rules
VFR
Conditions
Low drifting Snow
Cloud Levels
  • Few at 2,400' AGL
  • Few at 4,700' AGL
  • Broken at 12,000' AGL
Temperature
-23°C / -9°F
Dewpoint
-27°C / -17°F
Humidity
70%
Altimeter
30.11" Hg
Pressure
1020.5 hPa
Previous

4 hours ago

CYLA 232100Z 25010G19KT 15SM DRSN FEW006 FEW024 BKN080 M22/M27 A3011 RMK SF1SC1AC5 SF TR SLP202
Observed
Feb-23 @ 21:00 UTC
Wind
  • 250° at 10 KTS
  • Gusting to 19 KTS
Visibility
15 SM
Flight Rules
VFR
Conditions
Low drifting Snow
Cloud Levels
  • Few at 600' AGL
  • Few at 2,400' AGL
  • Broken at 8,000' AGL
Temperature
-22°C / -8°F
Dewpoint
-27°C / -17°F
Humidity
64%
Altimeter
30.11" Hg
Pressure
1020.2 hPa
Previous

5 hours ago

CYLA 232000Z 28018G24KT 15SM DRSN FEW006 FEW024 FEW074 M22/M27 A3008 RMK SF1SC1AS1 SF TR SC TR AS TR SLP195
Observed
Feb-23 @ 20:00 UTC
Wind
  • 280° at 18 KTS
  • Gusting to 24 KTS
Visibility
15 SM
Flight Rules
VFR
Conditions
Low drifting Snow
Cloud Levels
  • Few at 600' AGL
  • Few at 2,400' AGL
  • Few at 7,400' AGL
Temperature
-22°C / -8°F
Dewpoint
-27°C / -17°F
Humidity
64%
Altimeter
30.08" Hg
Pressure
1019.5 hPa